Time;durP1;ratioP1;P1;durP2;ratioP2;P2;SDS_P1;SDS_P2;PMS_P1;PMS_P2;Temp;Humidity;BMP_temperature;BMP_pressure;BME280_temperature;BME280_humidity;BME280_pressure;Samples;Min_cycle;Max_cycle;Signal;HPM_P1;HPM_P2
2022/06/07 00:01:00;;;;;;;9.57;8.55;;;;;;;17.85;100.00;99447.47;4878623;29;20041;-79
2022/06/07 00:03:26;;;;;;;11.80;8.70;;;;;;;17.83;100.00;99451.22;4894366;29;20067;-79
2022/06/07 00:05:52;;;;;;;9.68;8.77;;;;;;;17.90;100.00;99462.91;4859765;29;20723;-79
2022/06/07 00:08:18;;;;;;;9.20;8.30;;;;;;;17.85;100.00;99451.91;4860029;29;20080;-79
2022/06/07 00:10:45;;;;;;;10.73;8.68;;;;;;;17.89;100.00;99456.81;4875322;29;20044;-79
2022/06/07 00:13:11;;;;;;;8.93;8.13;;;;;;;17.88;100.00;99462.22;4875555;29;20655;-79
2022/06/07 00:15:38;;;;;;;9.00;8.13;;;;;;;17.81;100.00;99453.94;4875425;29;20049;-79
2022/06/07 00:18:04;;;;;;;9.70;8.80;;;;;;;17.85;100.00;99465.91;4875695;29;20041;-79
2022/06/07 00:20:29;;;;;;;8.77;7.97;;;;;;;17.82;100.00;99458.25;4875458;29;20044;-79
2022/06/07 00:22:55;;;;;;;9.40;8.48;;;;;;;17.80;100.00;99467.25;4875362;29;20037;-79
2022/06/07 00:25:21;;;;;;;8.65;7.85;;;;;;;17.69;100.00;99452.25;4874195;29;20073;-79
2022/06/07 00:27:47;;;;;;;9.50;8.57;;;;;;;17.77;100.00;99470.97;4936978;28;20149;-80
2022/06/07 00:30:13;;;;;;;8.65;7.85;;;;;;;17.68;100.00;99447.97;4954224;28;20098;-79
2022/06/07 00:32:40;;;;;;;9.10;8.20;;;;;;;17.76;100.00;99457.91;4983373;28;20128;-79
2022/06/07 00:35:06;;;;;;;9.63;8.38;;;;;;;17.75;100.00;99457.09;5048977;28;20029;-79
2022/06/07 00:37:32;;;;;;;10.60;9.50;;;;;;;17.74;100.00;99457.16;5064525;28;20047;-79
2022/06/07 00:39:57;;;;;;;9.85;8.88;;;;;;;17.75;100.00;99453.63;5091530;28;20024;-78
2022/06/07 00:42:22;;;;;;;9.82;8.65;;;;;;;17.73;100.00;99447.59;5091762;28;20071;-79
2022/06/07 00:44:48;;;;;;;10.00;9.05;;;;;;;17.72;100.00;99446.75;5073262;28;20082;-79
2022/06/07 00:47:23;;;;;;;9.85;8.85;;;;;;;17.72;100.00;99441.50;5092010;28;20028;-79
2022/06/07 00:49:57;;;;;;;9.82;8.93;;;;;;;17.73;100.00;99442.31;5094187;28;20024;-79
2022/06/07 00:52:25;;;;;;;9.50;8.60;;;;;;;17.70;100.00;99435.53;5093979;28;20569;-79
2022/06/07 00:54:51;;;;;;;11.32;9.15;;;;;;;17.66;100.00;99434.91;5092052;28;20056;-79
2022/06/07 00:57:16;;;;;;;10.23;8.82;;;;;;;17.69;100.00;99434.66;5095161;28;20479;-79
2022/06/07 00:59:42;;;;;;;10.23;9.02;;;;;;;17.64;100.00;99421.03;5076895;28;20056;-79
2022/06/07 01:02:07;;;;;;;9.77;8.63;;;;;;;17.64;100.00;99431.56;5095187;28;20138;-79
2022/06/07 01:04:34;;;;;;;11.23;9.02;;;;;;;17.59;100.00;99430.25;5077018;28;20410;-79
2022/06/07 01:12:28;;;;;;;11.48;9.05;;;;;;;17.55;100.00;99442.00;5094938;28;20089;-79
2022/06/07 01:14:54;;;;;;;10.15;9.15;;;;;;;17.49;100.00;99434.56;5076558;28;20399;-79
2022/06/07 01:17:20;;;;;;;9.95;9.05;;;;;;;17.43;100.00;99420.91;5095193;28;20107;-79
2022/06/07 01:19:47;;;;;;;10.63;9.52;;;;;;;17.51;100.00;99430.03;5051724;28;20041;-79
2022/06/07 01:22:13;;;;;;;9.30;8.40;;;;;;;17.46;100.00;99423.31;5035120;28;20126;-79
2022/06/07 01:24:38;;;;;;;10.02;9.13;;;;;;;17.40;100.00;99413.28;5034984;28;20068;-79
2022/06/07 01:27:05;;;;;;;9.95;8.95;;;;;;;17.45;100.00;99426.91;5052113;28;20061;-79
2022/06/07 01:29:31;;;;;;;9.13;8.30;;;;;;;17.41;100.00;99416.75;5035213;28;20041;-79
2022/06/07 01:31:56;;;;;;;10.88;9.00;;;;;;;17.39;100.00;99422.13;5035021;28;20036;-79
2022/06/07 01:34:22;;;;;;;9.10;8.18;;;;;;;17.35;100.00;99420.69;5034989;28;20114;-79
2022/06/07 01:36:48;;;;;;;9.45;8.48;;;;;;;17.34;100.00;99418.19;5034891;28;20033;-79
2022/06/07 01:41:58;;;;;;;11.40;8.98;;;;;;;17.19;100.00;99396.50;5051646;28;20036;-79
2022/06/07 01:44:28;;;;;;;10.75;9.65;;;;;;;17.17;100.00;99399.28;5034887;28;20033;-79
2022/06/07 01:46:55;;;;;;;9.05;8.25;;;;;;;17.17;100.00;99406.34;5034734;28;20037;-79
2022/06/07 01:49:21;;;;;;;9.32;8.43;;;;;;;17.16;100.00;99409.94;5051734;28;20029;-79
2022/06/07 01:51:47;;;;;;;9.23;8.40;;;;;;;17.13;100.00;99404.91;5072735;28;20040;-79
2022/06/07 01:54:13;;;;;;;8.95;8.15;;;;;;;17.14;100.00;99409.19;5094374;28;20435;-79
2022/06/07 01:56:39;;;;;;;9.40;8.52;;;;;;;17.07;100.00;99408.00;5076025;28;20032;-79
2022/06/07 01:59:06;;;;;;;9.70;8.80;;;;;;;17.04;100.00;99414.34;5093983;28;20672;-79
2022/06/07 02:01:32;;;;;;;9.27;8.43;;;;;;;16.99;100.00;99424.38;5075485;28;20441;-79
2022/06/07 02:03:58;;;;;;;8.98;8.02;;;;;;;16.91;100.00;99406.56;5075866;28;20028;-79
2022/06/07 02:06:23;;;;;;;9.45;8.55;;;;;;;16.90;100.00;99410.16;5075924;28;20024;-79
2022/06/07 02:08:48;;;;;;;9.15;8.27;;;;;;;16.84;100.00;99400.06;5070784;28;20040;-79
2022/06/07 02:11:18;;;;;;;9.20;8.30;;;;;;;16.81;100.00;99410.84;5071113;28;20381;-79
2022/06/07 02:13:44;;;;;;;9.02;8.13;;;;;;;16.81;100.00;99412.63;5054110;28;20036;-79
2022/06/07 02:16:10;;;;;;;8.57;7.68;;;;;;;16.75;100.00;99411.31;5071092;28;20094;-79
2022/06/07 02:18:37;;;;;;;9.75;8.60;;;;;;;16.70;100.00;99409.00;5070964;28;20062;-79
2022/06/07 02:21:04;;;;;;;9.98;9.00;;;;;;;16.66;100.00;99398.81;5070685;28;20078;-79
2022/06/07 02:23:31;;;;;;;8.90;8.07;;;;;;;16.61;100.00;99401.81;5053977;28;20068;-78
2022/06/07 02:26:03;;;;;;;10.00;9.10;;;;;;;16.50;100.00;99385.16;5070962;28;20120;-79
2022/06/07 02:28:32;;;;;;;9.25;8.45;;;;;;;16.49;100.00;99397.47;5070758;28;20070;-79
2022/06/07 02:30:59;;;;;;;9.88;8.88;;;;;;;16.42;100.00;99397.06;5053718;28;20138;-79
2022/06/07 02:33:26;;;;;;;9.02;8.10;;;;;;;16.40;100.00;99403.41;5053891;28;20118;-79
2022/06/07 02:35:52;;;;;;;9.32;7.75;;;;;;;16.35;100.00;99408.16;5053565;28;20067;-79
2022/06/07 02:38:19;;;;;;;9.25;8.45;;;;;;;16.26;100.00;99401.78;5070647;28;20029;-79
2022/06/07 02:40:46;;;;;;;10.52;9.40;;;;;;;16.23;100.00;99399.41;5072412;28;20046;-79
2022/06/07 02:43:12;;;;;;;9.60;8.68;;;;;;;16.16;100.00;99398.19;5074780;28;20501;-79
2022/06/07 02:45:37;;;;;;;9.15;8.35;;;;;;;16.11;100.00;99395.91;5075117;28;20024;-79
2022/06/07 02:48:03;;;;;;;9.10;8.27;;;;;;;16.10;100.00;99406.53;5075006;28;20499;-79
2022/06/07 02:50:29;;;;;;;10.05;9.15;;;;;;;16.06;100.00;99395.41;5074958;28;20093;-79
2022/06/07 02:52:55;;;;;;;9.50;8.55;;;;;;;16.01;100.00;99392.25;5074550;28;20448;-79
2022/06/07 02:55:21;;;;;;;9.30;8.13;;;;;;;16.00;100.00;99389.75;5091568;28;20032;-79
2022/06/07 02:57:46;;;;;;;11.18;8.63;;;;;;;15.92;100.00;99377.16;5092932;28;20032;-79
2022/06/07 03:00:15;;;;;;;8.90;7.97;;;;;;;15.93;100.00;99384.13;5074603;28;20032;-79
2022/06/07 03:02:41;;;;;;;9.68;7.80;;;;;;;15.84;100.00;99382.13;5092767;28;20487;-79
2022/06/07 03:05:07;;;;;;;9.85;8.23;;;;;;;15.82;100.00;99381.41;5074345;28;20028;-79
2022/06/07 03:07:32;;;;;;;10.02;7.75;;;;;;;15.83;100.00;99383.94;5074803;28;20028;-79
2022/06/07 03:09:58;;;;;;;9.02;8.13;;;;;;;15.87;100.00;99387.16;5092650;28;20104;-79
2022/06/07 03:12:23;;;;;;;8.52;7.72;;;;;;;15.76;100.00;99368.72;5092173;28;20028;-79
2022/06/07 03:14:49;;;;;;;8.88;7.97;;;;;;;15.72;100.00;99370.75;5092587;28;20020;-79
2022/06/07 03:17:14;;;;;;;7.53;6.82;;;;;;;15.76;100.00;99372.22;5093040;28;20085;-79
2022/06/07 03:19:40;;;;;;;7.93;7.15;;;;;;;15.78;100.00;99383.44;5092728;28;20031;-79
2022/06/07 03:22:07;;;;;;;8.68;6.90;;;;;;;15.69;100.00;99370.97;5074100;28;20052;-79
2022/06/07 03:24:33;;;;;;;8.27;7.03;;;;;;;15.75;100.00;99390.69;5092527;28;20028;-79
2022/06/07 03:26:59;;;;;;;8.88;7.15;;;;;;;15.74;100.00;99400.34;5074005;28;20498;-79
2022/06/07 03:29:24;;;;;;;9.20;8.40;;;;;;;15.73;100.00;99396.06;5074465;28;20111;-79
2022/06/07 03:31:50;;;;;;;8.68;7.70;;;;;;;15.73;100.00;99393.44;5092278;28;20376;-79
2022/06/07 03:34:15;;;;;;;9.07;8.15;;;;;;;15.78;100.00;99400.97;5092707;28;20028;-79
2022/06/07 03:36:41;;;;;;;8.98;8.07;;;;;;;15.84;100.00;99390.00;5074166;28;20032;-79
2022/06/07 03:39:09;;;;;;;10.18;8.68;;;;;;;15.90;100.00;99382.53;5090702;28;20118;-79
2022/06/07 03:41:35;;;;;;;9.57;8.52;;;;;;;15.95;100.00;99384.81;5073946;28;20084;-79
2022/06/07 03:44:01;;;;;;;8.75;7.72;;;;;;;15.99;100.00;99382.81;5073999;28;20028;-79
2022/06/07 03:46:28;;;;;;;9.13;8.23;;;;;;;16.03;100.00;99379.84;5092354;28;20379;-79
2022/06/07 03:48:54;;;;;;;10.40;8.73;;;;;;;16.15;100.00;99386.00;5092314;28;20035;-79
2022/06/07 03:51:22;;;;;;;9.15;8.27;;;;;;;16.27;100.00;99392.16;5092216;28;20050;-79
2022/06/07 03:53:48;;;;;;;9.88;8.88;;;;;;;16.32;100.00;99382.13;5091699;28;20035;-79
2022/06/07 03:56:14;;;;;;;10.13;8.52;;;;;;;16.45;100.00;99385.50;5091973;28;20028;-79
2022/06/07 03:58:40;;;;;;;8.93;8.13;;;;;;;16.57;100.00;99384.59;5092213;28;20375;-79
2022/06/07 04:01:09;;;;;;;10.07;9.07;;;;;;;16.63;100.00;99368.34;5073696;28;20188;-79
2022/06/07 04:03:35;;;;;;;8.60;7.80;;;;;;;16.82;100.00;99378.31;5049020;28;20044;-79
2022/06/07 04:06:02;;;;;;;8.30;7.60;;;;;;;16.93;100.00;99369.59;5032319;28;20041;-79
2022/06/07 04:08:28;;;;;;;8.40;7.60;;;;;;;17.26;100.00;99383.72;5032550;28;20040;-79
2022/06/07 04:11:01;;;;;;;9.40;8.40;;;;;;;17.64;100.00;99381.50;5032212;28;20033;-79
2022/06/07 04:13:29;;;;;;;8.68;7.78;;;;;;;18.21;100.00;99390.13;5049282;28;20451;-79
2022/06/07 04:15:55;;;;;;;9.20;8.30;;;;;;;18.79;100.00;99377.34;5032235;28;20025;-79
2022/06/07 04:18:20;;;;;;;12.23;8.30;;;;;;;19.61;100.00;99382.59;5032561;28;20037;-79
2022/06/07 04:20:46;;;;;;;8.93;8.13;;;;;;;20.99;100.00;99377.13;5032595;28;20392;-78
2022/06/07 04:23:18;;;;;;;8.43;7.22;;;;;;;22.72;95.32;99360.22;5032292;28;20448;-79
2022/06/07 04:25:44;;;;;;;7.32;6.63;;;;;;;24.38;87.19;99379.09;5053331;28;20384;-80
2022/06/07 04:28:11;;;;;;;8.20;7.10;;;;;;;25.30;80.50;99374.28;5036182;28;20037;-80
2022/06/07 04:30:37;;;;;;;7.95;6.78;;;;;;;25.11;80.28;99387.00;5053035;28;20036;-79
2022/06/07 04:33:03;;;;;;;7.75;6.30;;;;;;;24.54;82.67;99378.25;5052762;28;20044;-80
2022/06/07 04:35:28;;;;;;;8.02;7.15;;;;;;;24.08;85.04;99386.69;5072129;28;20032;-80
2022/06/07 04:37:54;;;;;;;6.93;6.32;;;;;;;23.89;86.09;99392.31;5077161;28;20028;-80
2022/06/07 04:40:20;;;;;;;6.40;5.72;;;;;;;23.70;86.79;99388.13;5095655;28;20489;-80
2022/06/07 04:42:46;;;;;;;7.90;6.13;;;;;;;23.39;87.01;99378.03;5052512;28;20076;-80
2022/06/07 04:45:15;;;;;;;5.47;4.90;;;;;;;24.38;83.53;99384.41;5035874;28;20033;-80
2022/06/07 04:47:42;;;;;;;4.82;4.43;;;;;;;26.49;75.16;99394.44;5052889;28;20037;-79
2022/06/07 04:50:11;;;;;;;5.38;4.65;;;;;;;28.28;67.22;99388.78;5052558;28;20039;-80
2022/06/07 04:52:37;;;;;;;5.13;4.63;;;;;;;28.72;64.19;99377.00;5052864;28;20037;-79
2022/06/07 04:55:03;;;;;;;5.47;4.97;;;;;;;28.03;66.08;99391.03;5052426;28;20033;-80
2022/06/07 04:57:29;;;;;;;5.03;4.53;;;;;;;27.00;68.73;99370.56;5035802;28;20124;-80
2022/06/07 04:59:55;;;;;;;5.10;4.50;;;;;;;26.39;71.49;99375.97;5035649;28;20029;-80
2022/06/07 05:02:21;;;;;;;5.15;4.63;;;;;;;25.96;73.30;99366.81;5035469;28;20102;-80
2022/06/07 05:04:47;;;;;;;4.97;4.47;;;;;;;25.91;74.21;99374.47;5032309;28;20480;-80
2022/06/07 05:07:13;;;;;;;4.95;4.55;;;;;;;26.16;73.50;99377.81;5031950;28;20157;-80
2022/06/07 05:09:39;;;;;;;5.40;4.50;;;;;;;27.62;68.75;99388.88;5015850;28;20035;-80
2022/06/07 05:12:05;;;;;;;4.57;4.10;;;;;;;28.57;64.18;99393.19;5032176;28;20087;-80
2022/06/07 05:14:31;;;;;;;4.80;4.30;;;;;;;29.68;60.68;99391.41;5031861;28;20045;-80
2022/06/07 05:16:57;;;;;;;6.38;4.38;;;;;;;30.37;57.83;99393.00;5015102;28;20029;-80
2022/06/07 05:19:23;;;;;;;4.75;4.25;;;;;;;29.77;58.64;99386.69;5018798;28;20037;-80
2022/06/07 05:21:49;;;;;;;4.50;4.10;;;;;;;28.93;61.59;99389.53;5051959;28;20395;-80
2022/06/07 05:24:15;;;;;;;4.32;3.85;;;;;;;28.24;63.49;99385.66;5035106;28;20045;-80
2022/06/07 05:26:51;;;;;;;4.35;3.70;;;;;;;28.03;64.37;99388.34;5052104;28;20037;-80
2022/06/07 05:29:22;;;;;;;4.65;4.25;;;;;;;28.19;64.06;99381.88;5051678;28;20531;-80
2022/06/07 05:31:49;;;;;;;6.32;4.13;;;;;;;29.43;60.88;99379.50;5035240;28;20561;-79
2022/06/07 05:34:14;;;;;;;4.45;3.78;;;;;;;31.34;55.17;99382.59;5051160;28;20571;-80
2022/06/07 05:36:41;;;;;;;4.85;3.85;;;;;;;31.35;53.06;99385.09;5089385;28;20066;-80
2022/06/07 05:39:07;;;;;;;4.90;3.60;;;;;;;31.12;51.98;99395.47;5076324;28;20506;-80
2022/06/07 05:41:33;;;;;;;4.65;4.13;;;;;;;30.75;53.35;99387.03;5076338;28;20051;-80
2022/06/07 05:43:59;;;;;;;5.65;4.18;;;;;;;30.35;54.08;99384.34;5094252;28;20085;-79
2022/06/07 05:46:25;;;;;;;4.65;3.97;;;;;;;29.75;55.82;99380.66;5094391;28;20031;-80
2022/06/07 05:48:50;;;;;;;4.30;3.90;;;;;;;28.94;57.46;99375.09;5094601;28;20059;-79
2022/06/07 05:51:16;;;;;;;6.22;4.10;;;;;;;28.50;59.26;99385.09;5094197;28;20115;-80
2022/06/07 05:53:42;;;;;;;4.43;4.03;;;;;;;28.42;59.42;99389.75;5094079;28;20513;-79
2022/06/07 05:56:13;;;;;;;4.22;3.60;;;;;;;28.46;59.79;99394.53;5094048;28;20032;-79
2022/06/07 05:58:39;;;;;;;4.88;3.75;;;;;;;28.72;58.89;99390.41;5014685;28;20112;-79
2022/06/07 06:01:09;;;;;;;3.95;3.65;;;;;;;28.60;58.70;99379.38;5014559;28;20044;-79
2022/06/07 06:03:36;;;;;;;4.07;3.70;;;;;;;28.05;59.99;99386.28;5031339;28;20084;-80
2022/06/07 06:06:02;;;;;;;5.80;4.00;;;;;;;27.25;61.98;99376.47;5031505;28;20041;-79
2022/06/07 06:11:15;;;;;;;5.07;4.65;;;;;;;25.81;67.16;99386.22;5031459;28;20444;-79
2022/06/07 06:13:41;;;;;;;7.43;4.43;;;;;;;25.22;69.16;99384.97;5014482;28;20151;-79
2022/06/07 06:16:19;;;;;;;5.72;4.10;;;;;;;24.78;71.16;99396.88;5014376;28;20041;-79
2022/06/07 06:18:46;;;;;;;4.50;4.07;;;;;;;24.39;71.78;99394.06;5031170;28;20049;-80
2022/06/07 06:21:12;;;;;;;5.20;4.45;;;;;;;24.10;73.26;99392.69;5030903;28;20036;-79
2022/06/07 06:23:38;;;;;;;4.50;4.10;;;;;;;24.03;74.77;99397.00;5014447;28;20037;-79
2022/06/07 06:26:11;;;;;;;4.82;4.43;;;;;;;24.05;75.65;99400.31;5030787;28;20373;-79
2022/06/07 06:28:38;;;;;;;5.00;4.43;;;;;;;23.96;76.30;99389.84;5035669;28;20756;-79
2022/06/07 06:31:08;;;;;;;5.80;5.20;;;;;;;24.07;76.93;99400.19;5093360;28;20039;-80
2022/06/07 06:33:41;;;;;;;6.07;5.25;;;;;;;24.02;76.93;99405.13;5093546;28;20069;-79
2022/06/07 06:36:09;;;;;;;4.93;4.53;;;;;;;23.83;77.46;99392.97;5093233;28;20032;-79
2022/06/07 06:38:35;;;;;;;6.38;5.13;;;;;;;23.75;78.60;99401.75;5093301;28;20020;-79
2022/06/07 06:41:12;;;;;;;6.88;5.65;;;;;;;23.62;79.17;99404.00;5093227;28;20028;-79
2022/06/07 06:43:38;;;;;;;7.28;5.65;;;;;;;23.46;80.23;99412.75;5075024;28;20435;-79
2022/06/07 06:46:06;;;;;;;5.15;4.70;;;;;;;23.29;80.79;99401.22;5092151;28;20173;-79
2022/06/07 06:48:31;;;;;;;6.65;4.80;;;;;;;23.19;81.83;99395.19;5092937;28;20416;-79
2022/06/07 06:51:04;;;;;;;6.03;5.43;;;;;;;23.18;81.88;99409.47;5093208;28;20038;-80
2022/06/07 06:53:31;;;;;;;6.15;5.55;;;;;;;23.05;82.82;99404.59;5092974;28;20505;-79
2022/06/07 06:55:57;;;;;;;5.63;5.03;;;;;;;22.87;83.33;99411.75;5074978;28;20162;-79
2022/06/07 06:58:25;;;;;;;5.57;5.07;;;;;;;22.64;84.23;99406.13;5092867;28;20103;-79
2022/06/07 07:01:06;;;;;;;6.82;5.28;;;;;;;22.47;85.71;99410.47;5074790;28;20031;-79
2022/06/07 07:03:33;;;;;;;6.78;6.07;;;;;;;22.31;86.85;99407.66;5074693;28;20043;-79
2022/06/07 07:06:00;;;;;;;5.97;5.47;;;;;;;22.17;87.75;99407.22;5092803;28;20043;-79
2022/06/07 07:08:26;;;;;;;10.18;6.22;;;;;;;22.14;88.71;99410.16;5074909;28;20020;-79
2022/06/07 07:11:23;;;;;;;7.53;5.70;;;;;;;22.07;89.79;99413.53;5091570;28;20035;-79
2022/06/07 07:13:50;;;;;;;6.03;5.53;;;;;;;21.95;89.99;99394.34;4990745;28;20034;-79
2022/06/07 07:16:19;;;;;;;6.90;5.90;;;;;;;21.98;90.90;99404.66;4989919;28;20414;-79
2022/06/07 07:18:46;;;;;;;6.32;5.63;;;;;;;21.93;91.41;99396.34;4990674;28;20048;-79
2022/06/07 07:21:16;;;;;;;6.15;5.55;;;;;;;21.97;91.53;99415.44;4951512;29;20120;-79
2022/06/07 07:23:42;;;;;;;;;;;;;;;22.00;91.41;99413.31;4951950;29;20123;-79
2022/06/07 07:26:14;;;;;;;7.10;5.60;;;;;;;21.94;92.02;99413.91;4950660;29;20373;-79
2022/06/07 07:28:41;;;;;;;6.78;5.70;;;;;;;21.98;92.64;99425.88;4933765;29;20106;-79
2022/06/07 07:31:12;;;;;;;6.57;5.55;;;;;;;21.98;92.86;99427.69;4949719;29;20471;-78
2022/06/07 07:33:38;;;;;;;6.63;5.78;;;;;;;21.95;93.00;99428.81;4948353;29;20692;-78
2022/06/07 07:36:05;;;;;;;6.35;5.72;;;;;;;21.89;93.06;99418.81;4950332;29;20037;-78
2022/06/07 07:38:32;;;;;;;5.72;4.88;;;;;;;21.96;92.83;99422.56;4950844;29;20053;-78
2022/06/07 07:40:57;;;;;;;6.00;5.40;;;;;;;22.00;93.04;99418.63;4950925;29;20032;-78
2022/06/07 07:43:23;;;;;;;6.15;5.57;;;;;;;22.17;93.14;99424.97;4950543;29;20054;-78
2022/06/07 07:45:52;;;;;;;5.50;4.75;;;;;;;22.22;93.05;99430.63;4950953;29;20048;-78
2022/06/07 07:48:18;;;;;;;6.88;4.80;;;;;;;22.23;92.70;99434.13;4934689;29;20066;-79
2022/06/07 07:50:45;;;;;;;6.63;5.13;;;;;;;22.22;92.55;99437.75;5006619;28;20033;-78
2022/06/07 07:53:11;;;;;;;6.00;5.40;;;;;;;22.18;93.21;99431.94;5049124;28;20472;-78
2022/06/07 07:55:42;;;;;;;5.45;4.95;;;;;;;22.24;93.14;99430.47;5032699;28;20123;-78
2022/06/07 07:58:07;;;;;;;5.60;5.00;;;;;;;22.22;92.78;99425.34;5044217;28;20040;-78
2022/06/07 08:00:33;;;;;;;6.20;5.38;;;;;;;22.41;91.89;99429.63;5048018;28;20082;-78
2022/06/07 08:03:00;;;;;;;5.22;4.72;;;;;;;22.62;90.71;99421.34;5048589;28;20045;-78
2022/06/07 08:05:25;;;;;;;7.65;4.45;;;;;;;22.75;89.70;99419.13;5049163;28;20087;-78
2022/06/07 08:07:51;;;;;;;5.13;4.63;;;;;;;22.91;88.69;99431.72;5049489;28;20048;-78
2022/06/07 08:10:17;;;;;;;5.20;4.68;;;;;;;23.01;88.37;99421.00;5049050;28;20039;-78
2022/06/07 08:12:43;;;;;;;5.20;4.70;;;;;;;23.13;86.82;99428.56;5048818;28;20041;-78
2022/06/07 08:15:09;;;;;;;7.30;5.10;;;;;;;23.28;86.42;99433.28;5048790;28;20033;-78
2022/06/07 08:17:35;;;;;;;6.13;5.13;;;;;;;23.31;85.47;99435.63;5048221;28;20127;-78
2022/06/07 08:20:00;;;;;;;5.28;4.70;;;;;;;23.31;84.60;99430.31;5047982;28;20487;-78
2022/06/07 08:22:26;;;;;;;6.07;4.43;;;;;;;23.39;82.20;99435.66;5047445;28;20040;-78
2022/06/07 08:24:52;;;;;;;4.97;4.40;;;;;;;23.48;81.88;99432.03;5047758;28;20037;-78
2022/06/07 08:27:17;;;;;;;5.05;4.57;;;;;;;23.73;80.58;99438.31;5030665;28;20136;-78
2022/06/07 08:29:43;;;;;;;5.70;4.22;;;;;;;23.81;79.73;99426.88;5048686;28;20056;-78
2022/06/07 08:32:09;;;;;;;4.78;4.30;;;;;;;24.01;78.54;99436.22;5065324;28;20051;-77
2022/06/07 08:37:33;;;;;;;4.30;3.90;;;;;;;23.86;77.65;99432.56;5071379;28;20396;-78
2022/06/07 08:40:07;;;;;;;5.78;4.60;;;;;;;23.80;76.36;99431.34;5071644;28;20021;-78
2022/06/07 08:42:36;;;;;;;4.90;4.40;;;;;;;23.75;78.04;99422.19;5053297;28;20116;-78
2022/06/07 08:45:16;;;;;;;4.15;3.72;;;;;;;24.02;78.54;99429.06;5071282;28;20493;-78
2022/06/07 08:47:49;;;;;;;4.32;3.92;;;;;;;24.30;77.38;99432.28;5071657;28;20033;-78
2022/06/07 08:50:17;;;;;;;4.50;3.80;;;;;;;24.52;76.28;99429.00;5071577;28;20029;-78
2022/06/07 08:52:44;;;;;;;4.20;3.80;;;;;;;24.62;75.11;99413.69;5086976;28;20499;-78
2022/06/07 08:55:21;;;;;;;3.95;3.65;;;;;;;24.86;72.90;99414.66;5088467;28;20433;-78
2022/06/07 08:57:59;;;;;;;7.03;3.30;;;;;;;24.87;71.02;99403.03;5089039;28;20044;-78
2022/06/07 09:00:27;;;;;;;4.15;3.75;;;;;;;24.92;72.29;99415.84;5088727;28;20050;-78
2022/06/07 09:03:14;;;;;;;3.55;3.25;;;;;;;24.85;71.79;99418.31;5088714;28;20054;-78
2022/06/07 09:05:40;;;;;;;3.55;3.25;;;;;;;24.88;72.80;99407.34;5088948;28;20037;-78
2022/06/07 09:08:05;;;;;;;5.07;3.45;;;;;;;25.01;70.38;99394.31;5088865;28;20043;-78
2022/06/07 09:13:20;;;;;;;4.22;3.55;;;;;;;25.69;68.22;99400.91;5092705;28;20082;-78
2022/06/07 09:15:53;;;;;;;3.60;3.30;;;;;;;25.75;66.97;99399.41;5092608;28;20040;-78
2022/06/07 09:18:20;;;;;;;6.68;3.35;;;;;;;25.77;66.80;99398.25;5075326;28;20122;-78
2022/06/07 09:20:50;;;;;;;4.70;3.50;;;;;;;25.73;66.83;99404.06;5092592;28;20098;-78
2022/06/07 09:23:32;;;;;;;4.18;3.35;;;;;;;25.59;67.41;99401.16;5092186;28;20043;-78
2022/06/07 09:26:31;;;;;;;3.20;2.90;;;;;;;25.46;66.42;99402.72;5067754;28;20041;-78
2022/06/07 09:29:15;;;;;;;2.90;2.70;;;;;;;25.24;66.02;99390.94;5056449;28;20043;-79
2022/06/07 09:31:43;;;;;;;3.03;2.78;;;;;;;25.03;65.61;99397.66;5056430;28;20039;-78
2022/06/07 09:34:28;;;;;;;3.25;2.95;;;;;;;24.85;65.78;99399.69;5074328;28;20028;-78
2022/06/07 09:37:03;;;;;;;3.42;3.05;;;;;;;24.70;66.09;99402.22;5074488;28;20036;-78
2022/06/07 09:39:43;;;;;;;3.55;3.20;;;;;;;24.55;67.03;99390.56;5056078;28;20048;-78
2022/06/07 09:42:17;;;;;;;3.83;3.30;;;;;;;24.44;67.76;99398.88;5073854;28;20090;-78
2022/06/07 09:45:00;;;;;;;3.63;3.28;;;;;;;24.31;69.35;99397.53;5074329;28;20063;-78
2022/06/07 09:47:27;;;;;;;3.92;2.90;;;;;;;24.17;68.94;99389.38;5073979;28;20032;-78
2022/06/07 09:49:58;;;;;;;4.05;3.20;;;;;;;24.11;68.99;99391.69;5074133;28;20063;-78
2022/06/07 09:52:41;;;;;;;3.70;2.67;;;;;;;23.98;69.61;99378.06;5089193;28;20025;-78
2022/06/07 09:55:21;;;;;;;4.40;3.42;;;;;;;23.94;69.66;99379.38;5074259;28;20078;-78
2022/06/07 09:58:00;;;;;;;3.65;3.30;;;;;;;23.92;69.02;99381.34;5074116;28;20024;-78
2022/06/07 10:00:38;;;;;;;3.20;2.90;;;;;;;23.96;69.15;99374.69;5055765;28;20024;-78
2022/06/07 10:03:27;;;;;;;2.80;2.58;;;;;;;23.88;66.81;99380.00;5073890;28;20125;-78
2022/06/07 10:06:20;;;;;;;4.07;2.50;;;;;;;23.81;64.72;99381.69;5028070;28;20108;-78
2022/06/07 10:08:51;;;;;;;2.67;2.40;;;;;;;23.72;65.13;99372.81;5012008;28;20030;-78
2022/06/07 10:11:35;;;;;;;3.03;2.53;;;;;;;23.67;65.64;99369.00;5011270;28;20067;-78
2022/06/07 10:14:01;;;;;;;4.07;2.75;;;;;;;23.63;65.08;99366.63;5011567;28;20033;-78
2022/06/07 10:16:35;;;;;;;2.83;2.60;;;;;;;23.51;64.92;99362.63;5011300;28;20041;-78
2022/06/07 10:19:21;;;;;;;3.50;2.75;;;;;;;23.42;65.59;99356.41;5011468;28;20041;-78
2022/06/07 10:22:11;;;;;;;2.60;2.40;;;;;;;23.46;65.32;99366.75;5027795;28;20034;-78
2022/06/07 10:24:43;;;;;;;4.00;2.33;;;;;;;23.51;65.90;99362.63;5027742;28;20049;-78
2022/06/07 10:27:15;;;;;;;2.63;2.42;;;;;;;23.51;65.10;99365.28;5011368;28;20129;-78
2022/06/07 10:29:59;;;;;;;4.32;3.00;;;;;;;23.57;65.39;99359.31;5011326;28;20485;-78
2022/06/07 10:32:48;;;;;;;3.10;2.30;;;;;;;23.62;65.22;99353.50;5011081;28;20473;-84
2022/06/07 10:35:28;;;;;;;2.72;2.53;;;;;;;23.65;65.68;99359.34;5027447;28;20041;-89
2022/06/07 10:38:26;;;;;;;3.05;2.40;;;;;;;23.70;66.17;99350.06;5027579;28;20388;-89
2022/06/07 10:41:03;;;;;;;3.33;2.80;;;;;;;23.75;65.47;99353.88;4972243;28;20085;-89
2022/06/07 10:43:50;;;;;;;2.83;2.50;;;;;;;23.73;64.96;99353.22;4998889;28;20030;-85
2022/06/07 10:46:20;;;;;;;3.22;2.78;;;;;;;23.72;64.87;99350.72;5030468;28;20053;-76
2022/06/07 10:49:09;;;;;;;2.83;2.60;;;;;;;23.71;65.28;99333.09;5014053;28;20041;-76
2022/06/07 10:54:30;;;;;;;3.05;2.75;;;;;;;23.80;66.08;99338.25;5030320;28;20076;-76
2022/06/07 10:57:18;;;;;;;2.83;2.50;;;;;;;23.77;63.11;99335.13;5030427;28;20045;-76
2022/06/07 10:59:43;;;;;;;2.40;2.22;;;;;;;23.85;62.84;99346.63;5030506;28;20028;-76
2022/06/07 11:02:34;;;;;;;3.53;2.20;;;;;;;23.93;63.31;99340.44;5029923;28;20049;-76
2022/06/07 11:10:45;;;;;;;3.40;2.67;;;;;;;24.44;62.49;99333.19;5030566;28;20037;-76
2022/06/07 11:13:46;;;;;;;2.90;2.50;;;;;;;24.63;62.06;99331.97;5030171;28;20029;-76
2022/06/07 11:16:29;;;;;;;4.43;3.10;;;;;;;24.71;61.44;99336.47;5030196;28;20503;-76
2022/06/07 11:18:59;;;;;;;4.22;2.90;;;;;;;24.71;60.52;99331.97;5072003;28;20047;-76
2022/06/07 11:21:34;;;;;;;2.80;2.60;;;;;;;24.88;61.30;99340.75;5072086;28;20066;-76
2022/06/07 11:24:02;;;;;;;2.92;2.60;;;;;;;25.11;60.74;99327.53;5072412;28;20368;-76
2022/06/07 11:26:55;;;;;;;3.40;2.83;;;;;;;25.28;60.59;99333.63;5071918;28;20025;-76
2022/06/07 11:29:32;;;;;;;5.50;2.92;;;;;;;25.34;59.95;99333.78;5071536;28;20111;-76
2022/06/07 11:32:02;;;;;;;3.55;3.00;;;;;;;25.32;60.41;99330.44;5071772;28;20480;-76
2022/06/07 11:34:35;;;;;;;3.03;2.63;;;;;;;25.34;60.28;99330.28;5071823;28;20020;-76
2022/06/07 11:37:10;;;;;;;3.10;2.80;;;;;;;25.24;60.30;99337.63;5072714;28;20357;-77
2022/06/07 11:39:38;;;;;;;3.60;2.83;;;;;;;25.23;61.15;99338.66;5090941;28;20027;-76
2022/06/07 11:42:28;;;;;;;3.75;3.30;;;;;;;25.24;61.01;99338.50;5091784;28;20066;-76
2022/06/07 11:45:04;;;;;;;6.50;3.08;;;;;;;24.99;62.04;99335.06;4990148;28;20418;-76
2022/06/07 11:47:44;;;;;;;3.53;2.80;;;;;;;24.80;62.96;99330.09;4989836;28;20050;-76
2022/06/07 11:50:44;;;;;;;2.70;2.50;;;;;;;25.00;63.12;99330.56;4990142;28;20112;-76
2022/06/07 11:53:27;;;;;;;3.13;2.70;;;;;;;25.12;62.15;99326.56;4990044;28;20041;-76
2022/06/07 11:56:02;;;;;;;3.78;2.80;;;;;;;25.14;62.69;99321.88;4990211;28;20062;-76
2022/06/07 11:58:58;;;;;;;2.95;2.75;;;;;;;25.08;61.78;99328.72;4990076;28;20125;-76
2022/06/07 12:01:39;;;;;;;3.13;2.65;;;;;;;24.84;62.75;99323.44;4931759;29;20558;-76
2022/06/07 12:04:30;;;;;;;4.00;3.28;;;;;;;24.48;62.64;99328.31;4932282;29;20043;-76
2022/06/07 12:07:04;;;;;;;;;;;;;;;24.20;63.29;99346.47;4932699;29;20035;-76